»·PEaware :: N261MG KGJT-KSLC

N261MG :: KGJT-KSLC

FLIGHT INFORMATION

Flight Status: Arrived
Operator: Privately registered:
United States
More flights under this callsign
Pilot: Marty O. (15602)
Aircraft: ECLIPSE 500
(EA50)
More flights by this aircraft type
Origin: KGJT Grand Junction Regl
United States
Destination: KSLC Salt Lake City Intl
United States
More flights between these airports :: More routes between these airports
Route: +JNC7 JNC J12 HELPR LEEHY5
File this flight plan on PilotEdge
Remarks:
Altitude:
(Current/Filed)
30,000ft
Speed:
(Current/Filed)
380kts
Departed: 11-Oct-20 02:24 PM
Arrived: 11-Oct-20 03:15 PM
Distance/Time
Traveled:
186nm/0:51
Distance/Time
To Go:
Arrived

Flight Plot

Page will automatically refresh every two minutes.

Flight plan parsing failed; only flown route is shown


Map Options




Map Legend


Flown Route
Filed Route
Departure Airport
Arrival Airport
Navaid (VOR, NDB)
Fix

Horizontal Profiles

Position Reports

Time Latitude Longitude Heading Altitude Ground
Speed
11-Oct-20 14:02 39.120475 -108.522269 124 4864ft 0kts
11-Oct-20 14:03 39.120475 -108.522269 124 4864ft 0kts
11-Oct-20 14:04 39.120475 -108.522269 124 4864ft 0kts
11-Oct-20 14:05 39.120475 -108.522269 124 4864ft 0kts
11-Oct-20 14:06 39.120475 -108.522269 124 4864ft 0kts
11-Oct-20 14:07 39.120475 -108.522269 124 4864ft 0kts
11-Oct-20 14:08 39.120475 -108.522269 124 4864ft 0kts
11-Oct-20 14:09 39.120475 -108.522269 124 4864ft 0kts
11-Oct-20 14:10 39.120475 -108.522269 124 4864ft 0kts
11-Oct-20 14:11 39.120475 -108.522269 124 4864ft 0kts
11-Oct-20 14:12 39.120475 -108.522269 124 4864ft 0kts
11-Oct-20 14:13 39.120475 -108.522269 124 4864ft 0kts
11-Oct-20 14:14 39.120475 -108.522269 124 4864ft 0kts
11-Oct-20 14:15 39.120475 -108.522269 124 4864ft 0kts
11-Oct-20 14:16 39.120475 -108.522269 124 4864ft 0kts
11-Oct-20 14:17 39.120475 -108.522269 124 4864ft 0kts
11-Oct-20 14:18 39.120475 -108.522269 124 4864ft 0kts
11-Oct-20 14:19 39.120493 -108.521845 16 4864ft 0kts
11-Oct-20 14:20 39.120461 -108.520271 125 4864ft 11kts
11-Oct-20 14:21 39.119007 -108.517681 124 4864ft 11kts
11-Oct-20 14:22 39.118278 -108.516360 125 4864ft 7kts
11-Oct-20 14:23 39.124131 -108.524559 306 4979ft 104kts
11-Oct-20 14:24 39.141853 -108.560437 299 7132ft 121kts
11-Oct-20 14:25 39.126708 -108.610464 248 8664ft 180kts
11-Oct-20 14:26 39.104354 -108.671524 247 11222ft 191kts
11-Oct-20 14:27 39.080442 -108.735984 248 14027ft 180kts
11-Oct-20 14:28 39.061371 -108.791176 275 16564ft 153kts
11-Oct-20 14:29 39.081470 -108.845176 296 18742ft 150kts
11-Oct-20 14:30 39.103356 -108.900000 297 20993ft 142kts
11-Oct-20 14:31 39.124368 -108.952238 297 22963ft 139kts
11-Oct-20 14:32 39.145625 -109.005039 298 24682ft 143kts
11-Oct-20 14:33 39.167280 -109.058806 299 26354ft 144kts
11-Oct-20 14:34 39.188899 -109.112518 301 27885ft 144kts
11-Oct-20 14:35 39.211019 -109.167543 301 29294ft 146kts
11-Oct-20 14:36 39.232043 -109.219814 301 30096ft 168kts
11-Oct-20 14:37 39.258676 -109.286179 301 30100ft 218kts
11-Oct-20 14:38 39.290791 -109.366583 300 30103ft 254kts
11-Oct-20 14:39 39.326570 -109.456427 300 30107ft 278kts
11-Oct-20 14:40 39.364483 -109.551910 300 30105ft 293kts
11-Oct-20 14:41 39.403802 -109.651251 299 30104ft 302kts
11-Oct-20 14:42 39.443282 -109.751321 299 30114ft 310kts
11-Oct-20 14:43 39.482886 -109.851987 299 30112ft 314kts
11-Oct-20 14:44 39.524878 -109.959100 299 30118ft 316kts
11-Oct-20 14:45 39.565257 -110.062460 299 30155ft 316kts
11-Oct-20 14:46 39.606638 -110.168735 299 30178ft 316kts
11-Oct-20 14:47 39.648172 -110.275807 299 30177ft 317kts
11-Oct-20 14:48 39.691109 -110.386891 299 30175ft 317kts
11-Oct-20 14:49 39.762687 -110.443561 340 30174ft 327kts
11-Oct-20 14:50 39.851509 -110.469030 340 30172ft 327kts
11-Oct-20 14:51 39.921666 -110.525476 289 30171ft 320kts
11-Oct-20 14:52 39.945501 -110.642590 290 28741ft 348kts
11-Oct-20 14:53 39.970773 -110.764517 289 27318ft 347kts
11-Oct-20 14:54 39.995746 -110.885248 289 25863ft 342kts
11-Oct-20 14:55 40.020268 -111.004278 288 24362ft 339kts
11-Oct-20 14:56 40.044474 -111.122563 288 23379ft 338kts
11-Oct-20 14:57 40.067773 -111.237093 287 20916ft 325kts
11-Oct-20 14:58 40.090632 -111.350046 287 18771ft 320kts
11-Oct-20 14:59 40.113040 -111.461342 287 16652ft 314kts
11-Oct-20 15:00 40.136265 -111.559226 295 16117ft 265kts
11-Oct-20 15:01 40.177699 -111.638450 295 15826ft 268kts
11-Oct-20 15:02 40.218584 -111.713967 327 15102ft 281kts
11-Oct-20 15:03 40.281319 -111.778528 320 14120ft 293kts
11-Oct-20 15:04 40.347623 -111.846134 321 12599ft 311kts
11-Oct-20 15:05 40.415346 -111.914901 324 11424ft 272kts
11-Oct-20 15:06 40.472016 -111.927716 351 11130ft 160kts
11-Oct-20 15:07 40.519575 -111.933488 352 10537ft 199kts
11-Oct-20 15:09 40.577618 -111.940366 351 8550ft 196kts
11-Oct-20 15:10 40.629492 -111.946190 352 7123ft 139kts
11-Oct-20 15:11 40.666683 -111.950531 352 7136ft 148kts
11-Oct-20 15:12 40.710708 -111.956845 347 6427ft 149kts
11-Oct-20 15:13 40.749045 -111.962249 358 4831ft 117kts
11-Oct-20 15:14 40.777504 -111.962113 358 4230ft 71kts
11-Oct-20 15:15 40.782439 -111.960917 80 4230ft 1kts
11-Oct-20 15:16 40.781346 -111.959955 180 4230ft 9kts
11-Oct-20 15:17 40.778985 -111.960018 179 4230ft 8kts
11-Oct-20 15:18 40.777647 -111.959931 151 4230ft 0kts
11-Oct-20 15:19 40.776695 -111.958874 121 4230ft 0kts
11-Oct-20 15:20 40.776695 -111.958874 121 4230ft 0kts
11-Oct-20 15:21 40.776695 -111.958874 121 4230ft 0kts
11-Oct-20 15:22 40.776695 -111.958874 121 4230ft 0kts
11-Oct-20 15:23 40.776695 -111.958874 121 4230ft 0kts

Navigation Log

Ident Type
Flight plan parsing failed, navigation log unavailable